sensor_id;sensor_type;location;lat;lon;timestamp;P1;durP1;ratioP1;P2;durP2;ratioP2
53313;SDS011;39202;51.468;7.146;2023-01-28T00:03:55;0.60;;;0.60;;
53313;SDS011;39202;51.468;7.146;2023-01-28T00:08:58;0.60;;;0.60;;
53313;SDS011;39202;51.468;7.146;2023-01-28T00:14:00;0.70;;;0.70;;
53313;SDS011;39202;51.468;7.146;2023-01-28T00:19:03;0.57;;;0.57;;
53313;SDS011;39202;51.468;7.146;2023-01-28T00:24:06;0.70;;;0.70;;
53313;SDS011;39202;51.468;7.146;2023-01-28T00:29:08;0.75;;;0.75;;
53313;SDS011;39202;51.468;7.146;2023-01-28T00:34:11;0.50;;;0.50;;
53313;SDS011;39202;51.468;7.146;2023-01-28T00:39:14;0.70;;;0.70;;
53313;SDS011;39202;51.468;7.146;2023-01-28T00:44:16;0.65;;;0.65;;
53313;SDS011;39202;51.468;7.146;2023-01-28T00:49:18;0.60;;;0.60;;
53313;SDS011;39202;51.468;7.146;2023-01-28T00:54:21;0.60;;;0.60;;
53313;SDS011;39202;51.468;7.146;2023-01-28T00:59:22;0.70;;;0.70;;
53313;SDS011;39202;51.468;7.146;2023-01-28T01:04:24;0.80;;;0.80;;
53313;SDS011;39202;51.468;7.146;2023-01-28T01:09:27;0.60;;;0.60;;
53313;SDS011;39202;51.468;7.146;2023-01-28T01:14:29;0.70;;;0.70;;
53313;SDS011;39202;51.468;7.146;2023-01-28T01:19:33;0.80;;;0.80;;
53313;SDS011;39202;51.468;7.146;2023-01-28T01:24:38;0.70;;;0.70;;
53313;SDS011;39202;51.468;7.146;2023-01-28T01:29:40;0.60;;;0.60;;
53313;SDS011;39202;51.468;7.146;2023-01-28T01:34:41;0.60;;;0.60;;
53313;SDS011;39202;51.468;7.146;2023-01-28T01:39:44;0.73;;;0.73;;
53313;SDS011;39202;51.468;7.146;2023-01-28T01:44:56;0.70;;;0.70;;
53313;SDS011;39202;51.468;7.146;2023-01-28T01:50:00;0.50;;;0.50;;
53313;SDS011;39202;51.468;7.146;2023-01-28T01:55:08;0.70;;;0.70;;
53313;SDS011;39202;51.468;7.146;2023-01-28T02:00:13;0.50;;;0.50;;
53313;SDS011;39202;51.468;7.146;2023-01-28T02:05:16;0.80;;;0.75;;
53313;SDS011;39202;51.468;7.146;2023-01-28T02:10:20;0.70;;;0.70;;
53313;SDS011;39202;51.468;7.146;2023-01-28T02:15:23;0.60;;;0.60;;
53313;SDS011;39202;51.468;7.146;2023-01-28T02:20:30;0.50;;;0.50;;
53313;SDS011;39202;51.468;7.146;2023-01-28T02:25:54;0.47;;;0.47;;
53313;SDS011;39202;51.468;7.146;2023-01-28T02:31:12;0.77;;;0.77;;
53313;SDS011;39202;51.468;7.146;2023-01-28T02:36:22;0.60;;;0.60;;
53313;SDS011;39202;51.468;7.146;2023-01-28T02:41:30;0.77;;;0.70;;
53313;SDS011;39202;51.468;7.146;2023-01-28T02:46:37;0.68;;;0.68;;
53313;SDS011;39202;51.468;7.146;2023-01-28T02:52:00;0.45;;;0.45;;
53313;SDS011;39202;51.468;7.146;2023-01-28T02:57:18;0.70;;;0.70;;
53313;SDS011;39202;51.468;7.146;2023-01-28T03:02:33;0.73;;;0.73;;
53313;SDS011;39202;51.468;7.146;2023-01-28T03:07:39;0.70;;;0.70;;
53313;SDS011;39202;51.468;7.146;2023-01-28T03:12:41;0.63;;;0.63;;
53313;SDS011;39202;51.468;7.146;2023-01-28T03:18:05;0.60;;;0.60;;
53313;SDS011;39202;51.468;7.146;2023-01-28T03:23:28;0.70;;;0.70;;
53313;SDS011;39202;51.468;7.146;2023-01-28T03:28:54;0.65;;;0.65;;
53313;SDS011;39202;51.468;7.146;2023-01-28T03:34:20;0.60;;;0.60;;
53313;SDS011;39202;51.468;7.146;2023-01-28T03:39:40;0.50;;;0.50;;
53313;SDS011;39202;51.468;7.146;2023-01-28T03:44:42;0.60;;;0.60;;
53313;SDS011;39202;51.468;7.146;2023-01-28T03:49:55;0.60;;;0.60;;
53313;SDS011;39202;51.468;7.146;2023-01-28T03:54:58;0.60;;;0.60;;
53313;SDS011;39202;51.468;7.146;2023-01-28T04:00:00;0.50;;;0.50;;
53313;SDS011;39202;51.468;7.146;2023-01-28T04:05:03;0.65;;;0.65;;
53313;SDS011;39202;51.468;7.146;2023-01-28T04:10:11;0.60;;;0.60;;
53313;SDS011;39202;51.468;7.146;2023-01-28T04:15:13;0.45;;;0.45;;
53313;SDS011;39202;51.468;7.146;2023-01-28T04:20:17;0.70;;;0.70;;
53313;SDS011;39202;51.468;7.146;2023-01-28T04:25:18;0.70;;;0.70;;
53313;SDS011;39202;51.468;7.146;2023-01-28T04:30:20;0.70;;;0.70;;
53313;SDS011;39202;51.468;7.146;2023-01-28T04:35:24;0.60;;;0.60;;
53313;SDS011;39202;51.468;7.146;2023-01-28T04:40:25;0.45;;;0.45;;
53313;SDS011;39202;51.468;7.146;2023-01-28T04:45:27;0.70;;;0.70;;
53313;SDS011;39202;51.468;7.146;2023-01-28T04:50:31;0.63;;;0.63;;
53313;SDS011;39202;51.468;7.146;2023-01-28T04:55:33;0.50;;;0.50;;
53313;SDS011;39202;51.468;7.146;2023-01-28T05:00:35;0.60;;;0.60;;
53313;SDS011;39202;51.468;7.146;2023-01-28T05:05:38;0.60;;;0.60;;
53313;SDS011;39202;51.468;7.146;2023-01-28T05:10:39;0.70;;;0.70;;
53313;SDS011;39202;51.468;7.146;2023-01-28T05:15:41;0.57;;;0.57;;
53313;SDS011;39202;51.468;7.146;2023-01-28T05:20:44;0.60;;;0.60;;
53313;SDS011;39202;51.468;7.146;2023-01-28T05:25:46;0.60;;;0.60;;
53313;SDS011;39202;51.468;7.146;2023-01-28T05:30:48;0.60;;;0.60;;
53313;SDS011;39202;51.468;7.146;2023-01-28T05:35:51;0.77;;;0.77;;
53313;SDS011;39202;51.468;7.146;2023-01-28T05:40:52;0.70;;;0.70;;
53313;SDS011;39202;51.468;7.146;2023-01-28T05:45:54;0.60;;;0.60;;
53313;SDS011;39202;51.468;7.146;2023-01-28T05:50:57;0.70;;;0.70;;
53313;SDS011;39202;51.468;7.146;2023-01-28T05:55:59;0.70;;;0.70;;
53313;SDS011;39202;51.468;7.146;2023-01-28T06:01:01;0.60;;;0.60;;
53313;SDS011;39202;51.468;7.146;2023-01-28T06:06:04;0.60;;;0.60;;
53313;SDS011;39202;51.468;7.146;2023-01-28T06:11:06;0.70;;;0.70;;
53313;SDS011;39202;51.468;7.146;2023-01-28T06:16:08;0.68;;;0.68;;
53313;SDS011;39202;51.468;7.146;2023-01-28T06:21:11;0.65;;;0.65;;
53313;SDS011;39202;51.468;7.146;2023-01-28T06:26:13;0.63;;;0.63;;
53313;SDS011;39202;51.468;7.146;2023-01-28T06:31:14;0.60;;;0.60;;
53313;SDS011;39202;51.468;7.146;2023-01-28T06:36:17;0.70;;;0.70;;
53313;SDS011;39202;51.468;7.146;2023-01-28T06:41:19;0.60;;;0.60;;
53313;SDS011;39202;51.468;7.146;2023-01-28T06:46:21;0.60;;;0.60;;
53313;SDS011;39202;51.468;7.146;2023-01-28T06:51:25;0.60;;;0.60;;
53313;SDS011;39202;51.468;7.146;2023-01-28T06:56:26;0.60;;;0.60;;
53313;SDS011;39202;51.468;7.146;2023-01-28T07:01:28;0.60;;;0.60;;
53313;SDS011;39202;51.468;7.146;2023-01-28T07:06:32;0.65;;;0.65;;
53313;SDS011;39202;51.468;7.146;2023-01-28T07:11:33;0.60;;;0.60;;
53313;SDS011;39202;51.468;7.146;2023-01-28T07:16:35;0.60;;;0.60;;
53313;SDS011;39202;51.468;7.146;2023-01-28T07:21:38;0.50;;;0.50;;
53313;SDS011;39202;51.468;7.146;2023-01-28T07:26:40;0.60;;;0.60;;
53313;SDS011;39202;51.468;7.146;2023-01-28T07:31:42;0.50;;;0.50;;
53313;SDS011;39202;51.468;7.146;2023-01-28T07:36:45;0.70;;;0.70;;
53313;SDS011;39202;51.468;7.146;2023-01-28T07:41:47;1.20;;;1.10;;
53313;SDS011;39202;51.468;7.146;2023-01-28T07:46:48;2.15;;;1.10;;
53313;SDS011;39202;51.468;7.146;2023-01-28T07:51:51;1.80;;;1.17;;
53313;SDS011;39202;51.468;7.146;2023-01-28T07:56:53;1.20;;;1.10;;
53313;SDS011;39202;51.468;7.146;2023-01-28T08:01:55;1.25;;;1.25;;
53313;SDS011;39202;51.468;7.146;2023-01-28T08:06:58;1.25;;;1.15;;
53313;SDS011;39202;51.468;7.146;2023-01-28T08:12:00;1.55;;;1.45;;
53313;SDS011;39202;51.468;7.146;2023-01-28T08:17:02;1.15;;;1.15;;
53313;SDS011;39202;51.468;7.146;2023-01-28T08:22:05;1.40;;;1.30;;
53313;SDS011;39202;51.468;7.146;2023-01-28T08:27:07;1.55;;;1.40;;
53313;SDS011;39202;51.468;7.146;2023-01-28T08:32:08;1.63;;;1.48;;
53313;SDS011;39202;51.468;7.146;2023-01-28T08:37:12;1.70;;;1.60;;
53313;SDS011;39202;51.468;7.146;2023-01-28T08:42:13;1.98;;;1.52;;
53313;SDS011;39202;51.468;7.146;2023-01-28T08:47:15;1.92;;;1.67;;
53313;SDS011;39202;51.468;7.146;2023-01-28T08:52:18;1.52;;;1.42;;
53313;SDS011;39202;51.468;7.146;2023-01-28T08:57:20;1.48;;;1.38;;
53313;SDS011;39202;51.468;7.146;2023-01-28T09:02:22;1.70;;;1.60;;
53313;SDS011;39202;51.468;7.146;2023-01-28T09:07:25;1.50;;;1.40;;
53313;SDS011;39202;51.468;7.146;2023-01-28T09:12:26;2.05;;;1.60;;
53313;SDS011;39202;51.468;7.146;2023-01-28T09:17:28;1.60;;;1.50;;
53313;SDS011;39202;51.468;7.146;2023-01-28T09:22:32;1.77;;;1.67;;
53313;SDS011;39202;51.468;7.146;2023-01-28T09:27:33;1.60;;;1.50;;
53313;SDS011;39202;51.468;7.146;2023-01-28T09:32:35;1.83;;;1.50;;
53313;SDS011;39202;51.468;7.146;2023-01-28T09:37:39;2.05;;;1.88;;
53313;SDS011;39202;51.468;7.146;2023-01-28T09:42:45;2.03;;;1.73;;
53313;SDS011;39202;51.468;7.146;2023-01-28T09:47:59;2.10;;;1.73;;
53313;SDS011;39202;51.468;7.146;2023-01-28T09:53:06;1.55;;;1.40;;
53313;SDS011;39202;51.468;7.146;2023-01-28T09:58:15;2.15;;;1.70;;
53313;SDS011;39202;51.468;7.146;2023-01-28T10:03:21;1.70;;;1.60;;
53313;SDS011;39202;51.468;7.146;2023-01-28T10:08:53;3.42;;;1.85;;
53313;SDS011;39202;51.468;7.146;2023-01-28T10:14:12;3.88;;;2.13;;
53313;SDS011;39202;51.468;7.146;2023-01-28T10:19:27;3.05;;;1.70;;
53313;SDS011;39202;51.468;7.146;2023-01-28T10:24:34;2.88;;;1.83;;
53313;SDS011;39202;51.468;7.146;2023-01-28T10:29:38;3.10;;;1.90;;
53313;SDS011;39202;51.468;7.146;2023-01-28T10:34:43;2.88;;;1.88;;
53313;SDS011;39202;51.468;7.146;2023-01-28T10:39:46;3.17;;;2.08;;
53313;SDS011;39202;51.468;7.146;2023-01-28T10:44:48;3.83;;;2.13;;
53313;SDS011;39202;51.468;7.146;2023-01-28T10:49:52;4.53;;;2.40;;
53313;SDS011;39202;51.468;7.146;2023-01-28T10:55:01;4.03;;;2.30;;
53313;SDS011;39202;51.468;7.146;2023-01-28T11:00:12;3.10;;;2.10;;
53313;SDS011;39202;51.468;7.146;2023-01-28T11:05:24;3.08;;;2.20;;
53313;SDS011;39202;51.468;7.146;2023-01-28T11:10:30;4.70;;;2.58;;
53313;SDS011;39202;51.468;7.146;2023-01-28T11:15:34;3.80;;;2.28;;
53313;SDS011;39202;51.468;7.146;2023-01-28T11:20:36;2.20;;;2.00;;
53313;SDS011;39202;51.468;7.146;2023-01-28T11:25:42;3.75;;;2.38;;
53313;SDS011;39202;51.468;7.146;2023-01-28T11:30:48;3.10;;;2.20;;
53313;SDS011;39202;51.468;7.146;2023-01-28T11:35:51;3.55;;;2.20;;
53313;SDS011;39202;51.468;7.146;2023-01-28T11:40:56;3.92;;;2.20;;
53313;SDS011;39202;51.468;7.146;2023-01-28T11:46:02;3.38;;;1.92;;
53313;SDS011;39202;51.468;7.146;2023-01-28T11:51:21;3.60;;;1.90;;
53313;SDS011;39202;51.468;7.146;2023-01-28T11:56:35;3.40;;;1.80;;
53313;SDS011;39202;51.468;7.146;2023-01-28T12:01:46;3.22;;;2.15;;
53313;SDS011;39202;51.468;7.146;2023-01-28T12:07:01;3.63;;;2.28;;
53313;SDS011;39202;51.468;7.146;2023-01-28T12:12:26;3.47;;;2.00;;
53313;SDS011;39202;51.468;7.146;2023-01-28T12:17:57;3.13;;;2.05;;
53313;SDS011;39202;51.468;7.146;2023-01-28T12:23:11;2.55;;;2.08;;
53313;SDS011;39202;51.468;7.146;2023-01-28T12:39:39;3.85;;;1.92;;
53313;SDS011;39202;51.468;7.146;2023-01-28T12:44:53;3.17;;;1.90;;
53313;SDS011;39202;51.468;7.146;2023-01-28T12:50:03;4.32;;;2.20;;
53313;SDS011;39202;51.468;7.146;2023-01-28T12:55:12;4.72;;;2.50;;
53313;SDS011;39202;51.468;7.146;2023-01-28T13:00:20;3.97;;;2.30;;
53313;SDS011;39202;51.468;7.146;2023-01-28T13:05:27;4.53;;;2.95;;
53313;SDS011;39202;51.468;7.146;2023-01-28T13:10:35;4.45;;;3.42;;
53313;SDS011;39202;51.468;7.146;2023-01-28T13:15:42;7.38;;;3.60;;
53313;SDS011;39202;51.468;7.146;2023-01-28T13:20:46;6.68;;;3.88;;
53313;SDS011;39202;51.468;7.146;2023-01-28T13:25:50;5.32;;;3.70;;
53313;SDS011;39202;51.468;7.146;2023-01-28T13:31:00;9.93;;;4.60;;
53313;SDS011;39202;51.468;7.146;2023-01-28T13:36:06;6.85;;;4.15;;
53313;SDS011;39202;51.468;7.146;2023-01-28T13:41:23;7.53;;;4.07;;
53313;SDS011;39202;51.468;7.146;2023-01-28T13:46:37;6.90;;;3.72;;
53313;SDS011;39202;51.468;7.146;2023-01-28T13:51:39;8.32;;;4.00;;
53313;SDS011;39202;51.468;7.146;2023-01-28T13:56:56;7.50;;;4.68;;
53313;SDS011;39202;51.468;7.146;2023-01-28T14:02:39;7.70;;;4.50;;
53313;SDS011;39202;51.468;7.146;2023-01-28T14:08:27;7.55;;;4.03;;
53313;SDS011;39202;51.468;7.146;2023-01-28T14:13:52;5.70;;;3.95;;
53313;SDS011;39202;51.468;7.146;2023-01-28T14:19:11;6.47;;;4.03;;
53313;SDS011;39202;51.468;7.146;2023-01-28T14:24:15;6.43;;;3.97;;
53313;SDS011;39202;51.468;7.146;2023-01-28T14:29:32;7.45;;;3.72;;
53313;SDS011;39202;51.468;7.146;2023-01-28T14:34:44;7.13;;;4.20;;
53313;SDS011;39202;51.468;7.146;2023-01-28T14:39:49;6.97;;;4.05;;
53313;SDS011;39202;51.468;7.146;2023-01-28T14:44:56;6.28;;;3.65;;
53313;SDS011;39202;51.468;7.146;2023-01-28T14:50:13;6.55;;;3.83;;
53313;SDS011;39202;51.468;7.146;2023-01-28T14:55:39;5.43;;;3.55;;
53313;SDS011;39202;51.468;7.146;2023-01-28T15:00:52;6.25;;;4.20;;
53313;SDS011;39202;51.468;7.146;2023-01-28T15:06:03;5.18;;;3.38;;
53313;SDS011;39202;51.468;7.146;2023-01-28T15:11:06;5.80;;;3.65;;
53313;SDS011;39202;51.468;7.146;2023-01-28T15:16:14;6.38;;;3.65;;
53313;SDS011;39202;51.468;7.146;2023-01-28T15:21:20;4.90;;;3.50;;
53313;SDS011;39202;51.468;7.146;2023-01-28T15:26:23;5.50;;;3.58;;
53313;SDS011;39202;51.468;7.146;2023-01-28T15:31:27;4.43;;;3.25;;
53313;SDS011;39202;51.468;7.146;2023-01-28T15:36:31;4.53;;;3.13;;
53313;SDS011;39202;51.468;7.146;2023-01-28T15:41:34;4.50;;;3.08;;
53313;SDS011;39202;51.468;7.146;2023-01-28T15:46:38;4.13;;;3.15;;
53313;SDS011;39202;51.468;7.146;2023-01-28T15:51:42;5.90;;;3.10;;
53313;SDS011;39202;51.468;7.146;2023-01-28T15:56:50;6.50;;;3.40;;
53313;SDS011;39202;51.468;7.146;2023-01-28T16:02:03;4.30;;;2.88;;
53313;SDS011;39202;51.468;7.146;2023-01-28T16:07:19;3.80;;;2.90;;
53313;SDS011;39202;51.468;7.146;2023-01-28T16:12:21;4.10;;;2.70;;
53313;SDS011;39202;51.468;7.146;2023-01-28T16:17:26;3.75;;;2.35;;
53313;SDS011;39202;51.468;7.146;2023-01-28T16:22:33;3.90;;;2.40;;
53313;SDS011;39202;51.468;7.146;2023-01-28T16:27:36;3.65;;;2.78;;
53313;SDS011;39202;51.468;7.146;2023-01-28T16:32:39;2.42;;;2.22;;
53313;SDS011;39202;51.468;7.146;2023-01-28T16:37:43;3.47;;;2.33;;
53313;SDS011;39202;51.468;7.146;2023-01-28T16:42:45;3.25;;;2.67;;
53313;SDS011;39202;51.468;7.146;2023-01-28T16:47:48;3.33;;;2.35;;
53313;SDS011;39202;51.468;7.146;2023-01-28T16:52:52;3.00;;;2.47;;
53313;SDS011;39202;51.468;7.146;2023-01-28T16:57:55;4.05;;;2.60;;
53313;SDS011;39202;51.468;7.146;2023-01-28T17:02:57;2.72;;;2.30;;
53313;SDS011;39202;51.468;7.146;2023-01-28T17:08:00;2.40;;;2.15;;
53313;SDS011;39202;51.468;7.146;2023-01-28T17:13:03;3.83;;;2.45;;
53313;SDS011;39202;51.468;7.146;2023-01-28T17:18:05;2.58;;;2.28;;
53313;SDS011;39202;51.468;7.146;2023-01-28T17:23:10;3.58;;;2.25;;
53313;SDS011;39202;51.468;7.146;2023-01-28T17:28:14;3.28;;;2.40;;
53313;SDS011;39202;51.468;7.146;2023-01-28T17:33:16;3.58;;;2.22;;
53313;SDS011;39202;51.468;7.146;2023-01-28T17:38:19;2.20;;;2.00;;
53313;SDS011;39202;51.468;7.146;2023-01-28T17:43:21;2.28;;;1.95;;
53313;SDS011;39202;51.468;7.146;2023-01-28T17:48:23;2.58;;;2.10;;
53313;SDS011;39202;51.468;7.146;2023-01-28T17:53:26;2.67;;;2.00;;
53313;SDS011;39202;51.468;7.146;2023-01-28T17:58:28;2.15;;;2.00;;
53313;SDS011;39202;51.468;7.146;2023-01-28T18:03:29;2.22;;;2.00;;
53313;SDS011;39202;51.468;7.146;2023-01-28T18:08:32;2.55;;;1.90;;
53313;SDS011;39202;51.468;7.146;2023-01-28T18:13:35;3.33;;;2.15;;
53313;SDS011;39202;51.468;7.146;2023-01-28T18:18:37;2.25;;;2.05;;
53313;SDS011;39202;51.468;7.146;2023-01-28T18:23:40;2.45;;;2.25;;
53313;SDS011;39202;51.468;7.146;2023-01-28T18:28:42;2.75;;;1.98;;
53313;SDS011;39202;51.468;7.146;2023-01-28T18:33:43;2.45;;;2.10;;
53313;SDS011;39202;51.468;7.146;2023-01-28T18:38:47;1.75;;;1.65;;
53313;SDS011;39202;51.468;7.146;2023-01-28T18:43:49;2.10;;;2.00;;
53313;SDS011;39202;51.468;7.146;2023-01-28T18:48:51;2.08;;;1.88;;
53313;SDS011;39202;51.468;7.146;2023-01-28T18:53:56;2.20;;;2.00;;
53313;SDS011;39202;51.468;7.146;2023-01-28T18:58:58;2.17;;;1.98;;
53313;SDS011;39202;51.468;7.146;2023-01-28T19:04:02;2.30;;;2.10;;
53313;SDS011;39202;51.468;7.146;2023-01-28T19:09:06;2.40;;;2.20;;
53313;SDS011;39202;51.468;7.146;2023-01-28T19:14:10;2.85;;;2.30;;
53313;SDS011;39202;51.468;7.146;2023-01-28T19:19:13;3.33;;;2.53;;
53313;SDS011;39202;51.468;7.146;2023-01-28T19:24:16;2.78;;;2.47;;
53313;SDS011;39202;51.468;7.146;2023-01-28T19:29:18;4.57;;;2.65;;
53313;SDS011;39202;51.468;7.146;2023-01-28T19:34:20;2.80;;;2.30;;
53313;SDS011;39202;51.468;7.146;2023-01-28T19:39:23;3.13;;;2.80;;
53313;SDS011;39202;51.468;7.146;2023-01-28T19:44:25;3.78;;;2.70;;
53313;SDS011;39202;51.468;7.146;2023-01-28T19:49:27;2.88;;;2.67;;
53313;SDS011;39202;51.468;7.146;2023-01-28T19:54:30;3.72;;;2.88;;
53313;SDS011;39202;51.468;7.146;2023-01-28T19:59:31;3.78;;;3.38;;
53313;SDS011;39202;51.468;7.146;2023-01-28T20:04:33;3.25;;;2.88;;
53313;SDS011;39202;51.468;7.146;2023-01-28T20:09:36;3.90;;;3.28;;
53313;SDS011;39202;51.468;7.146;2023-01-28T20:14:38;3.80;;;3.05;;
53313;SDS011;39202;51.468;7.146;2023-01-28T20:19:40;3.08;;;2.65;;
53313;SDS011;39202;51.468;7.146;2023-01-28T20:24:43;3.47;;;3.10;;
53313;SDS011;39202;51.468;7.146;2023-01-28T20:29:45;3.95;;;3.30;;
53313;SDS011;39202;51.468;7.146;2023-01-28T20:34:46;3.80;;;3.40;;
53313;SDS011;39202;51.468;7.146;2023-01-28T20:39:50;3.88;;;3.25;;
53313;SDS011;39202;51.468;7.146;2023-01-28T20:44:51;3.42;;;3.13;;
53313;SDS011;39202;51.468;7.146;2023-01-28T20:49:53;3.53;;;3.15;;
53313;SDS011;39202;51.468;7.146;2023-01-28T20:54:56;4.25;;;3.38;;
53313;SDS011;39202;51.468;7.146;2023-01-28T20:59:58;4.13;;;3.33;;
53313;SDS011;39202;51.468;7.146;2023-01-28T21:04:59;3.75;;;3.45;;
53313;SDS011;39202;51.468;7.146;2023-01-28T21:10:03;3.70;;;3.40;;
53313;SDS011;39202;51.468;7.146;2023-01-28T21:15:05;4.00;;;3.20;;
53313;SDS011;39202;51.468;7.146;2023-01-28T21:20:08;4.18;;;3.50;;
53313;SDS011;39202;51.468;7.146;2023-01-28T21:25:12;4.22;;;3.83;;
53313;SDS011;39202;51.468;7.146;2023-01-28T21:30:15;3.88;;;3.58;;
53313;SDS011;39202;51.468;7.146;2023-01-28T21:35:18;4.20;;;3.80;;
53313;SDS011;39202;51.468;7.146;2023-01-28T21:40:21;4.15;;;3.75;;
53313;SDS011;39202;51.468;7.146;2023-01-28T21:45:23;3.88;;;3.55;;
53313;SDS011;39202;51.468;7.146;2023-01-28T21:50:25;4.35;;;3.95;;
53313;SDS011;39202;51.468;7.146;2023-01-28T21:55:28;4.03;;;3.70;;
53313;SDS011;39202;51.468;7.146;2023-01-28T22:00:30;5.07;;;3.72;;
53313;SDS011;39202;51.468;7.146;2023-01-28T22:05:31;4.18;;;3.67;;
53313;SDS011;39202;51.468;7.146;2023-01-28T22:10:35;3.70;;;3.40;;
53313;SDS011;39202;51.468;7.146;2023-01-28T22:15:36;4.32;;;3.78;;
53313;SDS011;39202;51.468;7.146;2023-01-28T22:20:39;3.97;;;3.67;;
53313;SDS011;39202;51.468;7.146;2023-01-28T22:25:42;4.22;;;3.83;;
53313;SDS011;39202;51.468;7.146;2023-01-28T22:30:45;4.53;;;4.13;;
53313;SDS011;39202;51.468;7.146;2023-01-28T22:35:47;4.43;;;4.03;;
53313;SDS011;39202;51.468;7.146;2023-01-28T22:40:51;4.40;;;4.03;;
53313;SDS011;39202;51.468;7.146;2023-01-28T22:45:56;4.65;;;4.25;;
53313;SDS011;39202;51.468;7.146;2023-01-28T22:51:02;6.07;;;4.30;;
53313;SDS011;39202;51.468;7.146;2023-01-28T22:56:06;4.22;;;3.83;;
53313;SDS011;39202;51.468;7.146;2023-01-28T23:01:08;4.20;;;3.90;;
53313;SDS011;39202;51.468;7.146;2023-01-28T23:06:10;4.57;;;4.20;;
53313;SDS011;39202;51.468;7.146;2023-01-28T23:11:15;3.78;;;3.47;;
53313;SDS011;39202;51.468;7.146;2023-01-28T23:16:24;4.63;;;4.22;;
53313;SDS011;39202;51.468;7.146;2023-01-28T23:21:44;4.03;;;3.72;;
53313;SDS011;39202;51.468;7.146;2023-01-28T23:27:04;4.65;;;4.25;;
53313;SDS011;39202;51.468;7.146;2023-01-28T23:32:06;4.03;;;3.70;;
53313;SDS011;39202;51.468;7.146;2023-01-28T23:37:10;4.60;;;4.18;;
53313;SDS011;39202;51.468;7.146;2023-01-28T23:42:14;4.15;;;3.85;;
53313;SDS011;39202;51.468;7.146;2023-01-28T23:47:18;5.05;;;4.65;;
53313;SDS011;39202;51.468;7.146;2023-01-28T23:52:19;3.92;;;3.63;;
53313;SDS011;39202;51.468;7.146;2023-01-28T23:57:23;4.40;;;4.00;;
